Time;durP1;ratioP1;P1;durP2;ratioP2;P2;SDS_P1;SDS_P2;PMS_P1;PMS_P2;Temp;Humidity;BMP_temperature;BMP_pressure;BME280_temperature;BME280_humidity;BME280_pressure;Samples;Min_cycle;Max_cycle;Signal;HPM_P1;HPM_P2
2022/03/14 00:00:39;;;;;;;6.9;5.4;;;;;;;9;37.55566;938.0578;;;;
2022/03/14 00:03:05;;;;;;;6.9;5.5;;;;;;;8.94;37.91406;937.975;;;;
2022/03/14 00:05:31;;;;;;;5.7;4.4;;;;;;;8.92;38.43652;938.0058;;;;
2022/03/14 00:07:55;;;;;;;8;5.4;;;;;;;8.97;37.72461;938.0383;;;;
2022/03/14 00:10:20;;;;;;;6.6;5.1;;;;;;;8.91;37.99121;938.0255;;;;
2022/03/14 00:12:45;;;;;;;7.1;4.7;;;;;;;8.88;37.85254;938.1385;;;;
2022/03/14 00:15:11;;;;;;;8.2;5;;;;;;;8.81;37.59473;938.1323;;;;
2022/03/14 00:17:35;;;;;;;6.7;4.8;;;;;;;8.79;37.41309;938.1774;;;;
2022/03/14 00:20:04;;;;;;;6.3;5;;;;;;;8.74;38.22559;938.205;;;;
2022/03/14 00:22:26;;;;;;;6.3;4.8;;;;;;;8.84;38.48633;938.2419;;;;
2022/03/14 00:24:50;;;;;;;7.2;5.3;;;;;;;8.77;37.95605;938.4564;;;;
2022/03/14 00:27:16;;;;;;;5.9;4.8;;;;;;;8.76;38.62598;938.4928;;;;
2022/03/14 00:29:41;;;;;;;6.8;4.7;;;;;;;8.91;37.38867;938.5424;;;;
2022/03/14 00:32:06;;;;;;;5.1;4.5;;;;;;;8.76;38.9668;938.4308;;;;
2022/03/14 00:34:31;;;;;;;7.5;5;;;;;;;8.72;39.03223;938.4723;;;;
2022/03/14 00:36:56;;;;;;;7.7;5.3;;;;;;;8.7;39.3252;938.5759;;;;
2022/03/14 00:39:21;;;;;;;7.2;5;;;;;;;8.83;39.03027;938.5966;;;;
2022/03/14 00:41:46;;;;;;;6.8;5.2;;;;;;;8.61;38.62305;938.6423;;;;
2022/03/14 00:44:15;;;;;;;6.1;4.7;;;;;;;8.7;39.73535;938.5236;;;;
2022/03/14 00:46:37;;;;;;;6.7;5.3;;;;;;;8.8;39.18652;938.6071;;;;
2022/03/14 00:49:02;;;;;;;7.2;5.1;;;;;;;8.88;38.06836;938.6633;;;;
2022/03/14 00:51:27;;;;;;;6.7;5.4;;;;;;;8.92;38.4707;938.7014;;;;
2022/03/14 00:53:52;;;;;;;6.3;4.7;;;;;;;8.97;37.71191;938.66;;;;
2022/03/14 00:56:20;;;;;;;7;5;;;;;;;8.98;37.73535;938.6642;;;;
2022/03/14 00:58:42;;;;;;;6.9;4.9;;;;;;;9.16;38.11621;938.6783;;;;
2022/03/14 01:01:07;;;;;;;6.4;5;;;;;;;9.19;38.0498;938.6836;;;;
2022/03/14 01:03:32;;;;;;;6.4;5.1;;;;;;;9.15;37.26172;938.6623;;;;
2022/03/14 01:05:57;;;;;;;7.7;5.3;;;;;;;9.2;36.67383;938.6591;;;;
2022/03/14 01:08:23;;;;;;;8;5.3;;;;;;;9.34;36.84473;938.7203;;;;
2022/03/14 01:10:48;;;;;;;7.8;5;;;;;;;9.31;36.83105;938.7787;;;;
2022/03/14 01:13:13;;;;;;;6.8;5;;;;;;;9.39;36.21191;938.6972;;;;
2022/03/14 01:15:38;;;;;;;7.4;5.1;;;;;;;9.49;36.4248;938.8801;;;;
2022/03/14 01:18:04;;;;;;;7;5;;;;;;;9.55;36.33789;938.7425;;;;
2022/03/14 01:20:28;;;;;;;6;5.2;;;;;;;9.5;36.69922;938.9152;;;;
2022/03/14 01:22:54;;;;;;;9.5;6.3;;;;;;;9.5;37.50781;938.9875;;;;
2022/03/14 01:25:18;;;;;;;6.9;5.1;;;;;;;9.59;36.65039;938.9507;;;;
2022/03/14 01:27:43;;;;;;;8.1;5.5;;;;;;;9.66;35.36816;939.0123;;;;
2022/03/14 01:30:09;;;;;;;7.3;5.2;;;;;;;9.81;36.29297;939.0616;;;;
2022/03/14 01:32:34;;;;;;;7.6;5.5;;;;;;;9.75;36.74316;938.9626;;;;
2022/03/14 01:34:59;;;;;;;7.9;5.4;;;;;;;9.79;37.44141;939.088;;;;
2022/03/14 01:37:24;;;;;;;6.3;4.9;;;;;;;9.75;37.78027;939.1487;;;;
2022/03/14 01:39:49;;;;;;;6.9;5.3;;;;;;;9.61;38.34961;939.2442;;;;
2022/03/14 01:42:14;;;;;;;6.8;5.3;;;;;;;9.53;38.6377;939.2216;;;;
2022/03/14 01:44:39;;;;;;;6.6;5.3;;;;;;;9.56;38.04883;939.1973;;;;
2022/03/14 01:47:04;;;;;;;7.9;5.2;;;;;;;9.72;37.49316;939.0974;;;;
2022/03/14 01:49:30;;;;;;;8.4;6.2;;;;;;;9.67;38.33203;939.096;;;;
2022/03/14 01:51:55;;;;;;;9.7;5.5;;;;;;;9.74;37.03906;939.2408;;;;
2022/03/14 01:54:20;;;;;;;6.7;5.1;;;;;;;9.54;38.10352;939.198;;;;
2022/03/14 01:56:45;;;;;;;9.4;5.1;;;;;;;9.24;38.42969;939.3814;;;;
2022/03/14 01:59:10;;;;;;;7.1;5.3;;;;;;;9.33;37.9834;939.3527;;;;
2022/03/14 02:01:35;;;;;;;5.5;4.7;;;;;;;9.49;36.95996;939.4103;;;;
2022/03/14 02:04:00;;;;;;;7.8;4.9;;;;;;;9.44;37.63965;939.4445;;;;
2022/03/14 02:06:27;;;;;;;13.6;5.6;;;;;;;9.55;37.61523;939.5797;;;;
2022/03/14 02:08:50;;;;;;;15.5;5.9;;;;;;;9.55;38.60547;939.5939;;;;
2022/03/14 02:11:15;;;;;;;11.1;5.4;;;;;;;9.55;38.36621;939.605;;;;
2022/03/14 02:13:41;;;;;;;7.5;5.6;;;;;;;9.59;38.67773;939.5803;;;;
2022/03/14 02:16:06;;;;;;;6.9;5;;;;;;;9.57;37.75293;939.6547;;;;
2022/03/14 02:18:31;;;;;;;9;5.2;;;;;;;9.47;37.57324;939.7645;;;;
2022/03/14 02:20:56;;;;;;;8.6;5.5;;;;;;;9.34;36.77637;939.7126;;;;
2022/03/14 02:23:21;;;;;;;6.1;4.8;;;;;;;9.42;37.19336;939.7756;;;;
2022/03/14 02:25:47;;;;;;;6.6;4.9;;;;;;;9.48;37.3584;939.7408;;;;
2022/03/14 02:28:15;;;;;;;8.8;5;;;;;;;9.57;37.19434;939.7651;;;;
2022/03/14 02:30:36;;;;;;;9.2;5.2;;;;;;;9.66;36.67871;939.75;;;;
2022/03/14 02:33:02;;;;;;;7.1;5.1;;;;;;;9.51;37.70313;939.9146;;;;
2022/03/14 02:35:27;;;;;;;7.8;4.9;;;;;;;9.43;37.25098;939.8742;;;;
2022/03/14 02:37:52;;;;;;;7;4.7;;;;;;;9.46;38.13086;939.9526;;;;
2022/03/14 02:40:17;;;;;;;11.4;5.3;;;;;;;9.52;38.48926;940.0084;;;;
2022/03/14 02:42:42;;;;;;;8.5;5;;;;;;;9.47;38.74609;939.9678;;;;
2022/03/14 02:45:09;;;;;;;7.8;5;;;;;;;9.44;38.5957;940.1716;;;;
2022/03/14 02:47:32;;;;;;;6;4.6;;;;;;;9.21;40.39746;940.3176;;;;
2022/03/14 02:49:57;;;;;;;5.5;4.5;;;;;;;9.07;40.14551;940.4602;;;;
2022/03/14 02:52:22;;;;;;;5.8;4.4;;;;;;;9.13;40.25293;940.4811;;;;
2022/03/14 02:54:48;;;;;;;5.6;4.6;;;;;;;9.14;39.66113;940.4567;;;;
2022/03/14 02:57:13;;;;;;;7.2;5.3;;;;;;;9.15;39.89063;940.445;;;;
2022/03/14 02:59:38;;;;;;;7.5;5.1;;;;;;;9.1;40.2041;940.4916;;;;
2022/03/14 03:02:03;;;;;;;5.9;4.7;;;;;;;9.05;40.46191;940.5305;;;;
2022/03/14 03:04:28;;;;;;;8.6;5.5;;;;;;;9.02;40.68555;940.6372;;;;
2022/03/14 03:06:54;;;;;;;5.8;5;;;;;;;9.06;39.96094;940.7784;;;;
2022/03/14 03:09:18;;;;;;;7.1;4.9;;;;;;;8.99;40.8877;940.8269;;;;
2022/03/14 03:11:43;;;;;;;10;5.8;;;;;;;8.9;41.11816;940.8466;;;;
2022/03/14 03:14:09;;;;;;;9.3;5.7;;;;;;;8.82;41.31543;940.903;;;;
2022/03/14 03:16:34;;;;;;;7.2;5.3;;;;;;;8.71;41.16797;941.01;;;;
2022/03/14 03:18:59;;;;;;;6.6;5;;;;;;;8.6;42.88574;941.036;;;;
2022/03/14 03:21:24;;;;;;;7.1;5;;;;;;;8.39;42.61523;941.1677;;;;
2022/03/14 03:23:49;;;;;;;7.5;5.3;;;;;;;8.28;43.37695;941.1848;;;;
2022/03/14 03:26:15;;;;;;;6.2;4.9;;;;;;;8.15;43.86133;941.3797;;;;
2022/03/14 03:28:39;;;;;;;7.6;5.1;;;;;;;8.15;44.13477;941.4551;;;;
2022/03/14 03:31:04;;;;;;;6;4.7;;;;;;;8.07;44.49023;941.4842;;;;
2022/03/14 03:33:29;;;;;;;6.9;4.8;;;;;;;8.01;44.42773;941.4796;;;;
2022/03/14 03:35:55;;;;;;;6.7;4.7;;;;;;;7.99;46.45703;941.5033;;;;
2022/03/14 03:38:20;;;;;;;7.6;5.3;;;;;;;7.91;48.26367;941.5411;;;;
2022/03/14 03:40:45;;;;;;;11.2;5.6;;;;;;;7.93;45.76953;941.6548;;;;
2022/03/14 03:43:10;;;;;;;15.2;6;;;;;;;7.73;45.71484;941.6719;;;;
2022/03/14 03:45:35;;;;;;;16.1;5.9;;;;;;;7.58;46.33301;941.7273;;;;
2022/03/14 03:48:00;;;;;;;7.2;4.6;;;;;;;7.58;46.14063;941.831;;;;
2022/03/14 03:50:25;;;;;;;8.6;5.5;;;;;;;7.46;48.41797;941.9135;;;;
2022/03/14 03:52:50;;;;;;;9.2;5.7;;;;;;;7.41;49.61328;941.9595;;;;
2022/03/14 03:55:15;;;;;;;7.9;5.6;;;;;;;7.42;48.73047;941.9677;;;;
2022/03/14 03:57:41;;;;;;;9.5;5.8;;;;;;;7.19;49.74707;942.0756;;;;
2022/03/14 04:02:42;;;;;;;9.3;6.1;;;;;;;7.01;48.12891;942.1165;;;;
2022/03/14 04:05:07;;;;;;;9.1;5.8;;;;;;;6.8;50.32422;942.1557;;;;
2022/03/14 04:07:32;;;;;;;8.1;5.4;;;;;;;6.62;52.16895;942.1494;;;;
2022/03/14 04:09:57;;;;;;;9.1;5.4;;;;;;;6.41;51.05859;942.2416;;;;
2022/03/14 04:12:23;;;;;;;8.4;5.4;;;;;;;6.27;51.7998;942.3159;;;;
2022/03/14 04:14:47;;;;;;;11.4;5.7;;;;;;;5.97;51.70703;942.3223;;;;
2022/03/14 04:17:14;;;;;;;9.1;5.5;;;;;;;5.79;53.27734;942.4554;;;;
2022/03/14 04:19:41;;;;;;;8.8;5.3;;;;;;;5.42;53.56934;942.4283;;;;
2022/03/14 04:22:03;;;;;;;9.3;5.3;;;;;;;5.35;53.75195;942.4682;;;;
2022/03/14 04:24:28;;;;;;;7.7;5.6;;;;;;;5.53;52.96191;942.5298;;;;
2022/03/14 04:26:53;;;;;;;8.9;5.2;;;;;;;5.63;52.45605;942.575;;;;
2022/03/14 04:29:18;;;;;;;10.7;5.3;;;;;;;5.74;51.54395;942.6262;;;;
2022/03/14 04:31:43;;;;;;;7.7;5.3;;;;;;;5.33;53.84082;942.7572;;;;
2022/03/14 04:34:08;;;;;;;9;5.9;;;;;;;5.18;54.2959;942.8447;;;;
2022/03/14 04:36:33;;;;;;;7.4;5.6;;;;;;;5.31;54.57031;942.9088;;;;
2022/03/14 04:38:58;;;;;;;7.8;5.3;;;;;;;5.41;55.34961;942.9481;;;;
2022/03/14 04:41:23;;;;;;;7.4;5.4;;;;;;;5.49;54.55957;942.8879;;;;
2022/03/14 04:43:48;;;;;;;12;6;;;;;;;5.55;53.96777;942.9271;;;;
2022/03/14 04:46:14;;;;;;;10.7;6;;;;;;;5.41;53.76074;943.0014;;;;
2022/03/14 04:48:39;;;;;;;8.5;5.4;;;;;;;5.44;53.76367;942.9851;;;;
2022/03/14 04:51:04;;;;;;;11.8;5.8;;;;;;;5.41;53.64746;943.1324;;;;
2022/03/14 04:53:29;;;;;;;11.4;5.2;;;;;;;5.47;53.08984;943.1194;;;;
2022/03/14 04:55:54;;;;;;;11;6;;;;;;;5.38;53.50879;943.2921;;;;
2022/03/14 04:58:19;;;;;;;8.3;5.5;;;;;;;5.35;54.06836;943.3463;;;;
2022/03/14 05:00:44;;;;;;;10.3;6.8;;;;;;;5.22;54.70508;943.4558;;;;
2022/03/14 05:03:09;;;;;;;11.3;6.2;;;;;;;5.15;54.87793;943.5057;;;;
2022/03/14 05:05:35;;;;;;;8.5;6.5;;;;;;;5.17;57.19141;943.684;;;;
2022/03/14 05:07:59;;;;;;;20.8;8.7;;;;;;;4.94;56.69922;943.7657;;;;
2022/03/14 05:10:24;;;;;;;14.6;7.3;;;;;;;4.92;56.24512;943.8452;;;;
2022/03/14 05:12:50;;;;;;;13.6;7;;;;;;;4.92;56.13281;943.8848;;;;
2022/03/14 05:15:16;;;;;;;16.5;7.3;;;;;;;4.92;56.16699;943.9599;;;;
2022/03/14 05:17:40;;;;;;;16.7;7.3;;;;;;;4.94;55.85352;944.0103;;;;
2022/03/14 05:20:05;;;;;;;13.4;7.4;;;;;;;4.87;57.25293;944.0762;;;;
2022/03/14 05:22:30;;;;;;;21.4;8.4;;;;;;;4.8;57.70508;944.0959;;;;
2022/03/14 05:24:55;;;;;;;14.7;7.2;;;;;;;4.82;57.26855;944.1396;;;;
2022/03/14 05:27:20;;;;;;;20.5;8.3;;;;;;;5.03;56.39551;944.1728;;;;
2022/03/14 05:29:45;;;;;;;14.3;7.3;;;;;;;4.94;57.5332;944.2243;;;;
2022/03/14 05:32:10;;;;;;;15.2;8;;;;;;;4.81;57.90918;944.2427;;;;
2022/03/14 05:34:36;;;;;;;20.2;9.7;;;;;;;4.8;57.37891;944.2481;;;;
2022/03/14 05:37:00;;;;;;;14.8;8.9;;;;;;;4.65;57.11133;944.3337;;;;
2022/03/14 05:39:26;;;;;;;15.7;8.4;;;;;;;4.7;56.74512;944.3879;;;;
2022/03/14 05:41:51;;;;;;;17.4;8.1;;;;;;;4.76;56.35938;944.4375;;;;
2022/03/14 05:44:17;;;;;;;14.8;7.7;;;;;;;4.83;56.63965;944.5;;;;
2022/03/14 05:46:41;;;;;;;11.5;7.5;;;;;;;4.96;56.06934;944.6431;;;;
2022/03/14 05:49:06;;;;;;;12.8;6.7;;;;;;;4.95;55.93359;944.6443;;;;
2022/03/14 05:51:34;;;;;;;13.6;7.3;;;;;;;5.1;55.8623;944.683;;;;
2022/03/14 05:53:56;;;;;;;12.1;6.7;;;;;;;5.16;55.36328;944.7729;;;;
2022/03/14 05:56:22;;;;;;;22.7;9;;;;;;;5.23;55.18164;944.8095;;;;
2022/03/14 05:58:47;;;;;;;14.3;7.7;;;;;;;5.3;55.02051;944.8184;;;;
2022/03/14 06:01:12;;;;;;;17.2;7.9;;;;;;;5.12;55.57324;944.9192;;;;
2022/03/14 06:03:37;;;;;;;18;7.9;;;;;;;5.21;55.25684;944.9744;;;;
2022/03/14 06:06:02;;;;;;;16.9;6.8;;;;;;;5.22;55.19141;945.0933;;;;
2022/03/14 06:08:27;;;;;;;26.7;8.3;;;;;;;5.19;55.20898;945.0687;;;;
2022/03/14 06:10:53;;;;;;;25.7;9.3;;;;;;;5.08;55.71387;945.096;;;;
2022/03/14 06:13:17;;;;;;;28;9;;;;;;;5.3;55.40527;945.1967;;;;
2022/03/14 06:15:42;;;;;;;19.4;8.6;;;;;;;5.54;58.21191;945.2941;;;;
2022/03/14 06:18:07;;;;;;;17.4;7.7;;;;;;;5.81;59.14063;945.3234;;;;
2022/03/14 06:20:32;;;;;;;26.6;9.9;;;;;;;5.99;56.52051;945.3027;;;;
2022/03/14 06:22:57;;;;;;;32.1;10.7;;;;;;;5.98;54.21582;945.4433;;;;
2022/03/14 06:25:22;;;;;;;13.7;8.5;;;;;;;6.5;53.02637;945.4746;;;;
2022/03/14 06:27:47;;;;;;;17.4;8.1;;;;;;;7.2;50.26855;945.46;;;;
2022/03/14 06:30:13;;;;;;;20.8;8.4;;;;;;;7.93;48.3457;945.4656;;;;
2022/03/14 06:32:38;;;;;;;20.5;8.6;;;;;;;8.71;46.0918;945.4504;;;;
2022/03/14 06:35:03;;;;;;;23.6;8.6;;;;;;;9.36;44.4873;945.5306;;;;
2022/03/14 06:37:28;;;;;;;17.9;7.8;;;;;;;10.44;42.28027;945.5914;;;;
2022/03/14 06:39:53;;;;;;;16.3;8.2;;;;;;;11.33;40.20605;945.5945;;;;
2022/03/14 06:42:19;;;;;;;15.3;7.8;;;;;;;11.86;38.69824;945.5911;;;;
2022/03/14 06:44:44;;;;;;;38.7;10;;;;;;;11.18;40.08984;945.6472;;;;
2022/03/14 06:47:09;;;;;;;14;7;;;;;;;11.99;38.25098;945.6211;;;;
2022/03/14 06:49:34;;;;;;;18;8.4;;;;;;;10.53;40.59961;945.6188;;;;
2022/03/14 06:51:59;;;;;;;9.1;6.9;;;;;;;10.49;40.85938;945.6658;;;;
2022/03/14 06:54:24;;;;;;;16.6;9.7;;;;;;;11.18;39.95215;945.6518;;;;
2022/03/14 06:56:53;;;;;;;11.3;8;;;;;;;10.35;42.10156;945.6959;;;;
2022/03/14 06:59:18;;;;;;;16.2;8.2;;;;;;;11.12;40.50684;945.6539;;;;
2022/03/14 07:01:44;;;;;;;15.7;9.1;;;;;;;11.69;39.55176;945.6674;;;;
2022/03/14 07:04:09;;;;;;;11.9;6.7;;;;;;;11.34;39.40723;945.7118;;;;
2022/03/14 07:06:34;;;;;;;10.6;6.1;;;;;;;11.41;39.6543;945.7445;;;;
2022/03/14 07:08:59;;;;;;;13.5;6.6;;;;;;;12;38.09277;945.7562;;;;
2022/03/14 07:11:24;;;;;;;11.3;6.4;;;;;;;12.69;37.38379;945.7059;;;;
2022/03/14 07:13:49;;;;;;;11.2;6.4;;;;;;;12.39;37.48438;945.7115;;;;
2022/03/14 07:16:14;;;;;;;11.5;6.3;;;;;;;13.1;37.26953;945.7915;;;;
2022/03/14 07:18:39;;;;;;;11.4;6.3;;;;;;;13.8;35.09766;945.7944;;;;
2022/03/14 07:21:04;;;;;;;11;6.2;;;;;;;12.18;38.17676;945.7936;;;;
2022/03/14 07:23:29;;;;;;;9.6;6.2;;;;;;;11.16;39.8252;945.8166;;;;
2022/03/14 07:25:54;;;;;;;10.2;5.8;;;;;;;12.87;37.8125;945.8811;;;;
2022/03/14 07:28:19;;;;;;;8.1;5.4;;;;;;;12.14;38.78027;945.9503;;;;
2022/03/14 07:30:45;;;;;;;10.8;5.8;;;;;;;13;38.19141;946.001;;;;
2022/03/14 07:33:09;;;;;;;17.2;7.2;;;;;;;14.03;35.95605;946.0035;;;;
2022/03/14 07:35:35;;;;;;;13.8;6.5;;;;;;;13.49;35.45215;946.0703;;;;
2022/03/14 07:38:00;;;;;;;17.9;7.1;;;;;;;14.63;34.43848;946.0301;;;;
2022/03/14 07:40:25;;;;;;;9.5;5.4;;;;;;;14.39;34.7998;946.0516;;;;
2022/03/14 07:42:50;;;;;;;9;5.8;;;;;;;15.42;33.6582;946.0751;;;;
2022/03/14 07:45:16;;;;;;;11.7;5.8;;;;;;;16.15;31.48145;946.118;;;;
2022/03/14 07:47:41;;;;;;;10.9;6.6;;;;;;;15.8;31.21484;946.1964;;;;
2022/03/14 07:50:06;;;;;;;11.3;6.4;;;;;;;15.76;31.63867;946.2131;;;;
2022/03/14 07:52:30;;;;;;;9.6;5.8;;;;;;;15.31;32.73828;946.2261;;;;
2022/03/14 07:54:55;;;;;;;11.1;5.7;;;;;;;16.47;32.00195;946.2375;;;;
2022/03/14 07:57:20;;;;;;;9;5.3;;;;;;;18.02;28.75879;946.2494;;;;
2022/03/14 07:59:46;;;;;;;11;5.7;;;;;;;18.52;28.55957;946.2771;;;;
2022/03/14 08:02:10;;;;;;;7.8;5.5;;;;;;;17.22;29.75;946.2622;;;;
2022/03/14 08:04:39;;;;;;;8.1;5.3;;;;;;;14.92;32.26953;946.307;;;;
2022/03/14 08:07:01;;;;;;;13.4;6.4;;;;;;;14.44;33.70996;946.3306;;;;
2022/03/14 08:09:26;;;;;;;9.8;5.8;;;;;;;16.61;30.12598;946.2928;;;;
2022/03/14 08:11:51;;;;;;;10.8;5.6;;;;;;;16.92;30.1582;946.2595;;;;
2022/03/14 08:14:16;;;;;;;7.9;5.2;;;;;;;18.57;28.95801;946.2905;;;;
2022/03/14 08:16:41;;;;;;;9.2;5.6;;;;;;;18.12;28.13867;946.2675;;;;
2022/03/14 08:19:06;;;;;;;9.3;5.7;;;;;;;19.58;27.84668;946.3361;;;;
2022/03/14 08:21:33;;;;;;;9.7;7.1;;;;;;;20.72;25.30078;946.3022;;;;
2022/03/14 08:23:57;;;;;;;7.7;5.5;;;;;;;18.54;28.12988;946.3617;;;;
2022/03/14 08:26:23;;;;;;;8.9;5.2;;;;;;;16.92;30.4375;946.2692;;;;
2022/03/14 08:28:47;;;;;;;9.6;5.2;;;;;;;18.39;29.19043;946.3311;;;;
2022/03/14 08:31:12;;;;;;;6.7;4.9;;;;;;;21.6;25.77344;946.2816;;;;
2022/03/14 08:33:40;;;;;;;5.5;4.4;;;;;;;23.29;23.27344;946.2597;;;;
2022/03/14 08:36:02;;;;;;;5.5;4.3;;;;;;;24.13;22.72852;946.3191;;;;
2022/03/14 08:38:28;;;;;;;5;4.2;;;;;;;25.14;21.72949;946.3043;;;;
2022/03/14 08:40:53;;;;;;;5.9;4.2;;;;;;;25.98;20.6582;946.3018;;;;
2022/03/14 08:43:18;;;;;;;5.1;4;;;;;;;26.15;20.91504;946.3103;;;;
2022/03/14 08:45:44;;;;;;;5.1;3.8;;;;;;;26.92;20.00293;946.3847;;;;
2022/03/14 08:48:08;;;;;;;4.7;3.7;;;;;;;27.18;20.25195;946.3672;;;;
2022/03/14 08:50:33;;;;;;;8;4.4;;;;;;;26.21;20.72852;946.3861;;;;
2022/03/14 08:52:58;;;;;;;4.8;3.9;;;;;;;27.4;19.41895;946.5513;;;;
2022/03/14 08:55:25;;;;;;;6.2;4.2;;;;;;;28.37;18.46191;946.4576;;;;
2022/03/14 08:57:49;;;;;;;4.8;4.2;;;;;;;25.61;20.24023;946.4352;;;;
2022/03/14 09:00:14;;;;;;;6.4;4.7;;;;;;;26.61;20.08398;946.4214;;;;
2022/03/14 09:02:39;;;;;;;5.8;4;;;;;;;26.83;19.85645;946.4881;;;;
2022/03/14 09:05:04;;;;;;;4.8;4.3;;;;;;;25.38;20.91406;946.4986;;;;
2022/03/14 09:07:29;;;;;;;4.2;3.8;;;;;;;26.39;20.68945;946.5474;;;;
2022/03/14 09:09:54;;;;;;;7.8;4.1;;;;;;;26.6;19.78711;946.5967;;;;
2022/03/14 09:12:20;;;;;;;5.9;4.1;;;;;;;25.73;20.63477;946.5269;;;;
2022/03/14 09:14:45;;;;;;;5.7;4.2;;;;;;;26.17;20.91602;946.5145;;;;
2022/03/14 09:17:10;;;;;;;4.8;3.7;;;;;;;25.25;22.56152;946.4891;;;;
2022/03/14 09:19:35;;;;;;;4.7;4.2;;;;;;;25.82;21.00586;946.4886;;;;
2022/03/14 09:22:00;;;;;;;7.7;4.6;;;;;;;26.77;19.19043;946.5237;;;;
2022/03/14 09:24:25;;;;;;;7.3;4.3;;;;;;;26.41;20.34668;946.4453;;;;
2022/03/14 09:26:50;;;;;;;4.3;3.9;;;;;;;27.04;19.60547;946.4155;;;;
2022/03/14 09:29:15;;;;;;;5.6;4.3;;;;;;;28.28;18.30371;946.3536;;;;
2022/03/14 09:31:40;;;;;;;6.9;4.1;;;;;;;27.98;18.79102;946.4255;;;;
2022/03/14 09:34:05;;;;;;;18.7;5.2;;;;;;;28.58;18.20898;946.4003;;;;
2022/03/14 09:36:30;;;;;;;21.6;5;;;;;;;26.61;20.06055;946.3526;;;;
2022/03/14 09:38:55;;;;;;;7;4.8;;;;;;;27.91;18.4668;946.3998;;;;
2022/03/14 09:41:20;;;;;;;6.1;4.5;;;;;;;25.92;20.05273;946.4163;;;;
2022/03/14 09:43:46;;;;;;;4.7;4.2;;;;;;;24.42;22.09473;946.4483;;;;
2022/03/14 09:46:11;;;;;;;5.8;4.2;;;;;;;24.31;22.43164;946.4551;;;;
2022/03/14 09:48:36;;;;;;;5.1;4.4;;;;;;;23.96;22.88477;946.4214;;;;
2022/03/14 09:51:01;;;;;;;6.3;4;;;;;;;23.95;22.95508;946.3585;;;;
2022/03/14 09:53:26;;;;;;;5;4;;;;;;;24.32;22.85547;946.3727;;;;
2022/03/14 09:55:52;;;;;;;5.4;4.3;;;;;;;23.42;22.73926;946.3699;;;;
2022/03/14 09:58:26;;;;;;;5.1;4.4;;;;;;;22.82;23.88281;946.3114;;;;
2022/03/14 10:00:59;;;;;;;5.8;4.5;;;;;;;22.13;23.9043;946.2626;;;;
2022/03/14 10:03:32;;;;;;;7.5;4.5;;;;;;;23.22;22.48242;946.305;;;;
2022/03/14 10:06:09;;;;;;;6.3;4.3;;;;;;;23.02;23.55273;946.3449;;;;
2022/03/14 10:08:40;;;;;;;5.8;4.6;;;;;;;23.77;21.86328;946.2657;;;;
2022/03/14 10:11:07;;;;;;;5.3;4;;;;;;;23.54;22.60449;946.2081;;;;
2022/03/14 10:13:34;;;;;;;5.3;4.1;;;;;;;22.87;22.85254;946.2178;;;;
2022/03/14 10:16:22;;;;;;;5;4.3;;;;;;;24.33;21.77344;946.1923;;;;
2022/03/14 10:19:07;;;;;;;5.5;4.5;;;;;;;23.84;22.37207;946.1549;;;;
2022/03/14 10:21:51;;;;;;;5.2;4.2;;;;;;;24.16;21.91699;946.1555;;;;
2022/03/14 10:24:26;;;;;;;5.8;4.3;;;;;;;23.22;23.64551;946.1856;;;;
2022/03/14 10:27:28;;;;;;;5.4;4.2;;;;;;;24.38;22.55273;946.221;;;;
2022/03/14 10:30:13;;;;;;;6.6;4.3;;;;;;;24.6;21.72656;946.2167;;;;
2022/03/14 10:32:54;;;;;;;6;4.3;;;;;;;23.85;22.33789;946.2508;;;;
2022/03/14 10:35:37;;;;;;;4.5;4;;;;;;;23.87;22.58594;946.2907;;;;
2022/03/14 10:38:08;;;;;;;4.9;4.1;;;;;;;23.83;22.34766;946.2244;;;;
2022/03/14 10:41:09;;;;;;;5.1;4.3;;;;;;;24.06;22.4541;946.2977;;;;
2022/03/14 10:43:48;;;;;;;4.9;4.1;;;;;;;24.01;22.75781;946.2647;;;;
2022/03/14 10:46:25;;;;;;;6.4;4.1;;;;;;;24.08;22.47852;946.3336;;;;
2022/03/14 10:48:59;;;;;;;5.8;4.4;;;;;;;25.04;21.11035;946.2824;;;;
2022/03/14 10:51:32;;;;;;;5.7;4.3;;;;;;;24.13;21.73926;946.2247;;;;
2022/03/14 10:54:05;;;;;;;4.9;4.1;;;;;;;24.26;21.33301;946.2545;;;;
2022/03/14 10:56:39;;;;;;;7;3.9;;;;;;;24.68;21.56543;946.2674;;;;
2022/03/14 10:59:10;;;;;;;6.6;4.2;;;;;;;24.28;21.37012;946.2456;;;;
2022/03/14 11:01:43;;;;;;;4.6;3.7;;;;;;;24.16;21.58789;946.2792;;;;
2022/03/14 11:04:15;;;;;;;5.5;4.1;;;;;;;24.35;21.76172;946.3025;;;;
2022/03/14 11:06:41;;;;;;;6.2;4.2;;;;;;;24.53;21.18066;946.2628;;;;
2022/03/14 11:09:16;;;;;;;5.1;3.8;;;;;;;24.66;21.69434;946.2778;;;;
2022/03/14 11:11:46;;;;;;;5.9;4.1;;;;;;;25.41;20.65527;946.2739;;;;
2022/03/14 11:14:14;;;;;;;5.1;4;;;;;;;24.12;22.38574;946.2935;;;;
2022/03/14 11:16:39;;;;;;;5.5;4.1;;;;;;;25.54;20.05957;946.2336;;;;
2022/03/14 11:19:13;;;;;;;4.4;3.7;;;;;;;25.57;20.61621;946.2294;;;;
2022/03/14 11:21:47;;;;;;;5.5;4;;;;;;;24.74;21.35645;946.2767;;;;
2022/03/14 11:24:13;;;;;;;4.8;3.8;;;;;;;25.16;20.98633;946.1763;;;;
2022/03/14 11:26:47;;;;;;;5.6;3.7;;;;;;;25.21;20.94141;946.1462;;;;
2022/03/14 11:29:12;;;;;;;5.1;3.7;;;;;;;25.2;20.30371;946.0625;;;;
2022/03/14 11:31:47;;;;;;;5.7;3.6;;;;;;;24.54;22.08887;946.1259;;;;
2022/03/14 11:34:16;;;;;;;4.7;3.5;;;;;;;25.15;21.31641;946.1067;;;;
2022/03/14 11:36:40;;;;;;;4.4;3.1;;;;;;;26.17;20.37207;946.0522;;;;
2022/03/14 11:39:12;;;;;;;3.9;2.9;;;;;;;27.29;18.78613;946.0005;;;;
2022/03/14 11:41:38;;;;;;;4.2;3.4;;;;;;;28.94;17.25977;945.9334;;;;
2022/03/14 11:44:08;;;;;;;4.1;3.5;;;;;;;27.71;17.9248;945.9576;;;;
2022/03/14 11:46:35;;;;;;;5.1;3.1;;;;;;;28.22;17.95703;945.9553;;;;
2022/03/14 11:49:06;;;;;;;5;3.2;;;;;;;27.86;18.22754;946.0335;;;;
2022/03/14 11:51:31;;;;;;;4.1;3.2;;;;;;;26.95;19.60156;945.9976;;;;
2022/03/14 11:53:57;;;;;;;4.6;3.2;;;;;;;28.7;17.89355;945.9291;;;;
2022/03/14 11:56:27;;;;;;;3.7;3.4;;;;;;;28.97;17.34473;945.9272;;;;
2022/03/14 11:59:00;;;;;;;4.3;3.1;;;;;;;29.85;16.9248;945.9097;;;;
2022/03/14 12:01:33;;;;;;;4.1;3;;;;;;;29.77;16.65918;945.8979;;;;
2022/03/14 12:04:03;;;;;;;3.5;2.7;;;;;;;30.82;16.10059;945.9051;;;;
2022/03/14 12:06:29;;;;;;;3.5;3;;;;;;;29.47;17.75684;945.9125;;;;
2022/03/14 12:09:00;;;;;;;4.9;2.6;;;;;;;29.79;17.3877;945.8804;;;;
2022/03/14 12:11:28;;;;;;;2.8;2.6;;;;;;;30.07;16.3125;945.7986;;;;
2022/03/14 12:13:57;;;;;;;3.4;2.6;;;;;;;29.5;17.55566;945.7687;;;;
2022/03/14 12:16:29;;;;;;;4.5;2.9;;;;;;;28.12;18.72559;945.783;;;;
2022/03/14 12:18:54;;;;;;;4.2;2.6;;;;;;;28.54;18.0293;945.823;;;;
2022/03/14 12:21:22;;;;;;;4.1;2.8;;;;;;;28.96;16.53418;945.7177;;;;
2022/03/14 12:23:47;;;;;;;3.7;2.7;;;;;;;28.82;17.87402;945.7997;;;;
2022/03/14 12:26:15;;;;;;;3.9;2.6;;;;;;;30.24;16.46191;945.8021;;;;
2022/03/14 12:28:46;;;;;;;3.9;2.9;;;;;;;30.83;16.35156;945.7653;;;;
2022/03/14 12:31:19;;;;;;;3.1;2.8;;;;;;;29.29;17.59473;945.7729;;;;
2022/03/14 12:33:53;;;;;;;3.5;2.9;;;;;;;29.98;16.57129;945.8187;;;;
2022/03/14 12:36:33;;;;;;;5;3;;;;;;;28.57;18.48242;945.7868;;;;
2022/03/14 12:39:06;;;;;;;4.9;3.1;;;;;;;27.63;19.08496;945.7744;;;;
2022/03/14 12:41:31;;;;;;;4;2.6;;;;;;;27.49;19.23242;945.7608;;;;
2022/03/14 12:43:57;;;;;;;3;2.6;;;;;;;28.01;19.17188;945.742;;;;
2022/03/14 12:46:24;;;;;;;3;2.5;;;;;;;29.71;17.4082;945.7633;;;;
2022/03/14 12:48:49;;;;;;;3;2.5;;;;;;;30.22;17.34473;945.7832;;;;
2022/03/14 12:51:16;;;;;;;3.3;2.6;;;;;;;31.15;16.75781;945.7903;;;;
2022/03/14 12:53:47;;;;;;;4.3;3.2;;;;;;;28.9;18.48438;945.6475;;;;
2022/03/14 12:56:11;;;;;;;5.8;3.2;;;;;;;27.14;20.0957;945.632;;;;
2022/03/14 12:58:43;;;;;;;4.1;2.6;;;;;;;27.2;20.33594;945.6811;;;;
2022/03/14 13:01:12;;;;;;;3.8;2.7;;;;;;;27.91;19.48828;945.6392;;;;
2022/03/14 13:03:42;;;;;;;5.9;2.8;;;;;;;28.94;18.48633;945.6497;;;;
2022/03/14 13:06:09;;;;;;;3.8;2.8;;;;;;;27.15;20.16699;945.5984;;;;
2022/03/14 13:08:34;;;;;;;4;2.8;;;;;;;26.29;21.05176;945.6788;;;;
2022/03/14 13:11:03;;;;;;;3.6;2.9;;;;;;;27.23;20.18262;945.5726;;;;
2022/03/14 13:13:30;;;;;;;3.6;2.8;;;;;;;27.37;19.91602;945.5248;;;;
2022/03/14 13:15:56;;;;;;;4;3.1;;;;;;;27.03;20.74219;945.5158;;;;
2022/03/14 13:18:27;;;;;;;3.3;2.7;;;;;;;26.33;20.92383;945.5299;;;;
2022/03/14 13:20:55;;;;;;;4;2.8;;;;;;;25.61;21.95313;945.4136;;;;
2022/03/14 13:23:27;;;;;;;4;2.6;;;;;;;26.29;20.85059;945.473;;;;
2022/03/14 13:26:03;;;;;;;7.7;2.9;;;;;;;25.49;22.37207;945.4092;;;;
2022/03/14 13:28:29;;;;;;;3.6;2.8;;;;;;;25.2;22.28711;945.4835;;;;
2022/03/14 13:31:03;;;;;;;5;2.8;;;;;;;26.23;21.29688;945.5242;;;;
2022/03/14 13:33:31;;;;;;;5.7;3.4;;;;;;;27.01;20.42188;945.5287;;;;
2022/03/14 13:36:03;;;;;;;5.6;3.2;;;;;;;25.21;22.5;945.5298;;;;
2022/03/14 13:38:29;;;;;;;5.7;3.1;;;;;;;25.39;22.43848;945.5325;;;;
2022/03/14 13:40:57;;;;;;;5.2;3.2;;;;;;;25.79;21.21777;945.5153;;;;
2022/03/14 13:43:21;;;;;;;6;3.2;;;;;;;26.47;20.90625;945.521;;;;
2022/03/14 13:45:46;;;;;;;4.1;2.9;;;;;;;25.67;21.89648;945.4738;;;;
2022/03/14 13:48:13;;;;;;;3.5;2.9;;;;;;;24.82;22.68066;945.4822;;;;
2022/03/14 13:50:46;;;;;;;5.3;3;;;;;;;24.1;24.03418;945.5031;;;;
2022/03/14 13:53:17;;;;;;;3.6;3;;;;;;;24.17;24.27344;945.5919;;;;
2022/03/14 13:55:42;;;;;;;3.9;2.9;;;;;;;25.31;22.69434;945.5564;;;;
2022/03/14 13:58:07;;;;;;;3.8;2.8;;;;;;;25.3;22.41016;945.5847;;;;
2022/03/14 14:00:36;;;;;;;3.5;2.8;;;;;;;24.86;23.1543;945.5806;;;;
2022/03/14 14:03:08;;;;;;;5.4;2.9;;;;;;;25.38;22.82715;945.6006;;;;
2022/03/14 14:05:40;;;;;;;3;2.5;;;;;;;26.56;21.13574;945.6234;;;;
2022/03/14 14:08:05;;;;;;;7.4;2.8;;;;;;;25.44;22.32324;945.6827;;;;
2022/03/14 14:10:30;;;;;;;4.8;2.6;;;;;;;24.78;23.08008;945.6864;;;;
2022/03/14 14:12:56;;;;;;;2.8;2.4;;;;;;;25.67;21.86133;945.681;;;;
2022/03/14 14:15:21;;;;;;;3.7;2.8;;;;;;;25.13;22.48438;945.6998;;;;
2022/03/14 14:17:52;;;;;;;2.8;2.4;;;;;;;24.27;23.88965;945.7299;;;;
2022/03/14 14:20:14;;;;;;;4.2;2.6;;;;;;;23.96;23.81445;945.6501;;;;
2022/03/14 14:22:42;;;;;;;4.4;3.2;;;;;;;23.78;23.81641;945.7936;;;;
2022/03/14 14:25:17;;;;;;;4.5;2.5;;;;;;;23.45;24.20996;945.7375;;;;
2022/03/14 14:27:42;;;;;;;3.2;2.7;;;;;;;23.26;24.8584;945.7654;;;;
2022/03/14 14:30:07;;;;;;;3.9;2.8;;;;;;;23.04;24.78711;945.7314;;;;